Time;durP1;ratioP1;P1;durP2;ratioP2;P2;SDS_P1;SDS_P2;PMS_P1;PMS_P2;Temp;Humidity;BMP_temperature;BMP_pressure;BME280_temperature;BME280_humidity;BME280_pressure;Samples;Min_cycle;Max_cycle;Signal;HPM_P1;HPM_P2
2022/01/06 00:01:38;;;;;;;92.57;47.65;;;;;;;4.08;69.13;94585.28;5008751;28;20115;-73
2022/01/06 00:04:04;;;;;;;96.10;49.83;;;;;;;4.07;68.70;94597.72;5007029;28;20036;-73
2022/01/06 00:06:30;;;;;;;92.00;48.97;;;;;;;4.06;67.90;94592.56;5008365;28;20044;-73
2022/01/06 00:08:57;;;;;;;93.25;48.22;;;;;;;4.07;68.28;94584.47;5008651;28;20026;-73
2022/01/06 00:11:24;;;;;;;90.53;48.50;;;;;;;3.78;69.56;94585.63;5008061;28;20040;-72
2022/01/06 00:14:15;;;;;;;95.35;47.38;;;;;;;3.81;69.85;94587.94;5009445;28;20041;-73
2022/01/06 00:24:26;;;;;;;93.50;47.10;;;;;;;3.75;69.39;94599.19;5010379;28;20028;-73
2022/01/06 00:26:51;;;;;;;102.97;48.78;;;;;;;3.76;68.91;94590.22;4989030;28;20473;-73
2022/01/06 00:29:17;;;;;;;102.13;49.90;;;;;;;3.72;68.92;94596.84;5001286;28;20026;-73
2022/01/06 00:31:42;;;;;;;99.78;51.38;;;;;;;3.79;69.78;94589.09;5009340;28;20111;-73
2022/01/06 00:34:10;;;;;;;97.03;49.88;;;;;;;3.77;68.55;94580.47;5025237;28;20041;-72
2022/01/06 00:36:42;;;;;;;97.20;49.25;;;;;;;3.63;68.78;94603.91;5008825;28;20060;-73
2022/01/06 00:39:08;;;;;;;100.93;48.97;;;;;;;3.55;68.32;94599.38;5008115;28;20030;-73
2022/01/06 00:41:35;;;;;;;103.50;49.08;;;;;;;3.54;69.49;94616.28;5007125;28;20033;-75
2022/01/06 00:44:01;;;;;;;101.28;50.45;;;;;;;3.44;69.17;94616.34;5026906;28;20068;-74
2022/01/06 00:46:27;;;;;;;96.95;52.42;;;;;;;3.44;69.52;94632.25;4974159;28;20088;-74
2022/01/06 00:48:53;;;;;;;105.53;51.83;;;;;;;3.31;69.32;94622.03;4992827;28;20021;-72
2022/01/06 00:51:18;;;;;;;105.65;51.38;;;;;;;3.17;69.57;94635.81;5007921;28;20083;-73
2022/01/06 00:53:43;;;;;;;102.20;49.35;;;;;;;3.11;69.06;94617.88;5012603;28;20463;-71
2022/01/06 00:56:09;;;;;;;106.07;50.83;;;;;;;3.05;69.38;94625.44;5028631;28;20514;-74
2022/01/06 00:58:34;;;;;;;98.72;50.83;;;;;;;2.99;69.66;94619.91;4995302;28;20032;-74
2022/01/06 01:01:00;;;;;;;108.95;53.38;;;;;;;2.81;70.28;94613.63;4995540;28;20025;-73
2022/01/06 01:03:25;;;;;;;118.88;57.83;;;;;;;2.77;71.32;94616.72;5009651;28;20025;-74
2022/01/06 01:05:52;;;;;;;117.20;58.45;;;;;;;2.80;71.20;94627.84;5012447;28;20041;-72
2022/01/06 01:08:18;;;;;;;107.45;55.55;;;;;;;2.87;70.97;94648.44;5009503;28;20018;-73
2022/01/06 01:10:44;;;;;;;117.13;57.40;;;;;;;2.84;70.38;94634.50;5012659;28;20025;-72
2022/01/06 01:13:11;;;;;;;114.10;56.42;;;;;;;2.85;70.30;94632.69;5009930;28;20041;-75
2022/01/06 01:15:45;;;;;;;116.68;56.25;;;;;;;2.86;70.46;94637.00;5011916;28;20033;-73
2022/01/06 01:18:13;;;;;;;108.15;52.83;;;;;;;2.76;69.24;94644.19;5027929;28;20451;-73
2022/01/06 01:20:38;;;;;;;101.45;51.80;;;;;;;2.62;68.12;94634.91;5027540;28;20084;-74
2022/01/06 01:23:04;;;;;;;102.68;49.92;;;;;;;2.51;69.37;94618.25;4994551;28;20025;-72
2022/01/06 01:25:29;;;;;;;96.32;48.40;;;;;;;2.47;69.50;94628.28;5026383;28;20048;-72
2022/01/06 01:27:56;;;;;;;103.20;51.42;;;;;;;2.49;69.79;94612.25;5011733;28;20029;-72
2022/01/06 01:30:28;;;;;;;116.68;54.05;;;;;;;2.47;69.99;94612.41;5009941;28;20480;-73
2022/01/06 01:32:54;;;;;;;104.20;53.42;;;;;;;2.34;71.61;94620.69;5029256;28;20082;-71
2022/01/06 01:35:20;;;;;;;117.15;53.90;;;;;;;2.33;72.47;94626.97;5010627;28;20041;-71
2022/01/06 01:37:45;;;;;;;113.00;55.72;;;;;;;2.37;72.17;94622.19;5010191;28;20037;-74
2022/01/06 01:40:11;;;;;;;108.00;52.05;;;;;;;2.39;71.57;94625.53;5011868;28;20045;-75
2022/01/06 01:42:36;;;;;;;112.40;54.38;;;;;;;2.37;71.62;94614.25;4992900;28;20037;-76
2022/01/06 01:45:03;;;;;;;108.60;52.35;;;;;;;2.35;69.77;94614.41;5011794;28;20026;-72
2022/01/06 01:47:32;;;;;;;101.13;51.33;;;;;;;2.31;68.18;94623.63;5027096;28;20029;-75
2022/01/06 01:50:13;;;;;;;123.43;56.05;;;;;;;2.14;70.54;94606.72;5011690;28;20029;-72
2022/01/06 01:52:49;;;;;;;110.82;52.50;;;;;;;2.05;70.15;94592.53;5028113;28;20021;-73
2022/01/06 01:55:16;;;;;;;108.85;52.92;;;;;;;2.06;70.95;94596.84;5010229;28;20030;-73
2022/01/06 01:57:41;;;;;;;120.28;54.80;;;;;;;2.10;71.66;94600.03;4994903;28;20040;-72
2022/01/06 02:00:09;;;;;;;108.03;54.05;;;;;;;2.13;70.80;94604.22;5026522;28;20029;-73
2022/01/06 02:02:35;;;;;;;130.20;58.60;;;;;;;2.17;71.97;94600.28;5010230;28;20057;-75
2022/01/06 02:05:01;;;;;;;124.10;57.17;;;;;;;2.20;72.30;94594.72;5026863;28;20091;-75
2022/01/06 02:07:26;;;;;;;131.05;57.47;;;;;;;2.25;71.86;94604.84;5029065;28;20029;-72
2022/01/06 02:09:52;;;;;;;108.65;54.53;;;;;;;2.23;70.78;94607.63;5027868;28;20057;-76
2022/01/06 02:12:23;;;;;;;113.78;55.50;;;;;;;2.25;70.92;94613.63;5027727;28;20036;-73
2022/01/06 02:14:48;;;;;;;115.68;56.92;;;;;;;2.19;70.99;94611.56;5028755;28;20093;-73
2022/01/06 02:17:13;;;;;;;116.68;55.72;;;;;;;2.22;71.26;94611.28;5026428;28;20030;-74
2022/01/06 02:19:39;;;;;;;116.07;56.75;;;;;;;2.24;71.04;94611.97;5027946;28;20048;-72
2022/01/06 02:22:04;;;;;;;108.10;55.13;;;;;;;2.30;70.84;94614.03;5026328;28;20053;-72
2022/01/06 02:24:30;;;;;;;99.22;52.95;;;;;;;2.23;70.38;94612.94;5028427;28;20022;-72
2022/01/06 02:26:55;;;;;;;103.10;52.30;;;;;;;2.33;70.14;94620.84;5026748;28;20029;-73
2022/01/06 02:29:20;;;;;;;107.40;53.10;;;;;;;2.24;70.17;94627.84;5010290;28;20044;-73
2022/01/06 02:31:46;;;;;;;108.53;52.28;;;;;;;2.24;70.88;94630.50;5027765;28;20516;-72
2022/01/06 02:34:12;;;;;;;114.28;55.65;;;;;;;2.20;71.32;94626.47;5027007;28;20496;-73
2022/01/06 02:36:37;;;;;;;113.32;53.97;;;;;;;2.22;71.11;94640.38;4994177;28;20106;-72
2022/01/06 02:39:03;;;;;;;111.90;54.55;;;;;;;2.14;71.83;94638.47;5026036;28;20029;-75
2022/01/06 02:41:28;;;;;;;115.35;55.30;;;;;;;2.17;71.61;94632.03;4994641;28;20459;-72
2022/01/06 02:43:55;;;;;;;106.45;52.78;;;;;;;2.27;71.90;94632.84;5026008;28;20025;-72
2022/01/06 02:46:20;;;;;;;113.15;53.95;;;;;;;2.22;71.71;94629.81;5028272;28;20033;-74
2022/01/06 02:48:46;;;;;;;100.13;52.88;;;;;;;2.17;71.91;94637.34;5026966;28;20058;-74
2022/01/06 02:51:11;;;;;;;109.28;55.00;;;;;;;2.19;72.29;94619.50;5027100;28;20033;-72
2022/01/06 02:53:37;;;;;;;104.55;54.83;;;;;;;2.24;72.25;94617.25;5027947;28;20025;-72
2022/01/06 02:56:02;;;;;;;104.38;52.20;;;;;;;2.30;72.61;94639.66;5025746;28;20504;-75
2022/01/06 02:58:28;;;;;;;112.10;51.67;;;;;;;2.34;73.05;94602.16;5027786;28;20025;-75
2022/01/06 03:00:53;;;;;;;103.75;50.22;;;;;;;2.31;72.90;94612.19;5007625;28;20072;-76
2022/01/06 03:03:19;;;;;;;93.70;49.03;;;;;;;2.41;73.56;94620.09;5010268;28;20076;-72
2022/01/06 03:05:44;;;;;;;93.30;48.08;;;;;;;2.43;73.31;94631.38;5025281;28;20393;-72
2022/01/06 03:08:09;;;;;;;87.72;46.42;;;;;;;2.47;72.87;94612.41;5009447;28;20036;-73
2022/01/06 03:10:38;;;;;;;88.03;46.22;;;;;;;2.57;72.57;94635.34;5009025;28;20433;-72
2022/01/06 03:13:03;;;;;;;93.35;49.22;;;;;;;2.59;72.84;94621.00;5025864;28;20099;-75
2022/01/06 03:15:29;;;;;;;91.15;45.90;;;;;;;2.62;72.92;94614.56;5028148;28;20455;-72
2022/01/06 03:17:56;;;;;;;81.03;44.50;;;;;;;2.63;72.56;94623.34;5007662;28;20420;-73
2022/01/06 03:20:23;;;;;;;87.90;47.22;;;;;;;2.73;70.95;94626.75;5009776;28;20037;-73
2022/01/06 03:22:49;;;;;;;85.90;46.17;;;;;;;2.57;72.35;94625.59;4987948;28;20034;-72
2022/01/06 03:25:15;;;;;;;85.72;44.33;;;;;;;2.65;70.62;94634.59;4990289;28;20036;-77
2022/01/06 03:27:40;;;;;;;76.88;43.63;;;;;;;2.46;71.81;94625.78;5007741;28;20037;-74
2022/01/06 03:30:07;;;;;;;101.55;52.72;;;;;;;2.43;72.05;94632.22;5008663;28;20029;-72
2022/01/06 03:32:33;;;;;;;103.63;52.20;;;;;;;2.28;73.06;94631.84;4977539;28;20030;-73
2022/01/06 03:34:58;;;;;;;84.88;45.13;;;;;;;2.29;72.63;94624.75;5007655;28;20428;-73
2022/01/06 03:37:24;;;;;;;88.72;45.58;;;;;;;2.27;72.62;94632.84;5009127;28;20409;-74
2022/01/06 03:39:49;;;;;;;87.10;44.47;;;;;;;2.23;72.39;94642.03;5025373;28;20592;-72
2022/01/06 03:42:14;;;;;;;84.85;42.67;;;;;;;2.30;72.36;94637.84;5009281;28;20389;-71
2022/01/06 03:44:40;;;;;;;77.80;40.58;;;;;;;2.24;73.83;94625.19;5025028;28;20029;-73
2022/01/06 03:47:05;;;;;;;72.72;39.38;;;;;;;2.27;73.70;94627.56;5026640;28;20037;-75
2022/01/06 03:49:31;;;;;;;84.78;41.83;;;;;;;2.37;73.72;94624.84;5008593;28;20546;-73
2022/01/06 03:51:56;;;;;;;77.55;38.70;;;;;;;2.37;73.82;94639.91;4991947;28;20020;-72
2022/01/06 03:54:22;;;;;;;85.38;42.33;;;;;;;2.33;73.44;94648.16;5026995;28;20022;-73
2022/01/06 03:56:49;;;;;;;84.25;41.95;;;;;;;2.33;73.24;94624.31;5006322;28;20045;-73
2022/01/06 03:59:17;;;;;;;70.57;38.35;;;;;;;2.44;73.82;94643.63;5009418;28;20096;-73
2022/01/06 04:01:43;;;;;;;87.32;40.53;;;;;;;2.46;72.94;94650.47;4991074;28;20033;-73
2022/01/06 04:04:10;;;;;;;72.78;40.15;;;;;;;2.40;74.04;94639.63;5008552;28;20029;-74
2022/01/06 04:06:35;;;;;;;74.45;39.47;;;;;;;2.45;74.64;94645.31;5008257;28;20123;-73
2022/01/06 04:09:00;;;;;;;74.93;38.15;;;;;;;2.42;74.57;94642.97;5008674;28;20030;-73
2022/01/06 04:11:26;;;;;;;85.05;41.88;;;;;;;2.42;73.55;94661.50;5009077;28;20029;-74
2022/01/06 04:13:51;;;;;;;79.43;40.53;;;;;;;2.34;73.74;94636.56;5007516;28;20017;-73
2022/01/06 04:16:17;;;;;;;81.50;42.03;;;;;;;2.32;74.10;94672.91;5026186;28;20037;-74
2022/01/06 04:18:43;;;;;;;83.03;41.70;;;;;;;2.34;74.34;94628.63;5006953;28;20136;-73
2022/01/06 04:21:09;;;;;;;73.60;40.65;;;;;;;2.33;74.73;94655.25;4993096;28;20081;-72
2022/01/06 04:23:34;;;;;;;67.07;37.97;;;;;;;2.31;75.41;94639.50;5006486;28;20037;-74
2022/01/06 04:26:00;;;;;;;65.28;35.35;;;;;;;2.47;75.43;94664.50;5010361;28;20626;-73
2022/01/06 04:28:25;;;;;;;67.68;35.08;;;;;;;2.50;75.64;94666.06;4979726;28;20033;-74
2022/01/06 04:30:51;;;;;;;68.78;35.85;;;;;;;2.51;75.26;94659.75;4994824;28;20045;-74
2022/01/06 04:33:16;;;;;;;59.47;32.63;;;;;;;2.49;75.96;94670.50;5030444;28;20033;-72
2022/01/06 04:35:42;;;;;;;62.50;32.50;;;;;;;2.56;75.18;94676.06;4994531;28;20029;-74
2022/01/06 04:38:07;;;;;;;62.95;34.95;;;;;;;2.66;74.23;94689.25;5013021;28;20033;-73
2022/01/06 04:40:33;;;;;;;64.13;36.50;;;;;;;2.56;73.10;94657.53;5027898;28;20026;-72
2022/01/06 04:42:58;;;;;;;61.00;35.00;;;;;;;2.53;73.62;94685.09;4996338;28;20052;-73
2022/01/06 04:45:24;;;;;;;59.10;30.90;;;;;;;2.47;74.72;94675.94;5010405;28;20083;-72
2022/01/06 04:47:49;;;;;;;53.45;31.33;;;;;;;2.50;74.78;94668.69;5029384;28;20025;-73
2022/01/06 04:50:14;;;;;;;54.85;30.17;;;;;;;2.42;75.62;94693.25;5029977;28;20493;-75
2022/01/06 04:52:40;;;;;;;56.33;31.52;;;;;;;2.44;75.33;94675.38;5010827;28;21055;-73
2022/01/06 04:55:06;;;;;;;42.00;22.42;;;;;;;2.40;75.55;94671.38;5030452;28;20508;-73
2022/01/06 04:57:31;;;;;;;58.13;31.60;;;;;;;2.42;74.67;94709.94;5027468;28;20503;-73
2022/01/06 04:59:57;;;;;;;59.63;32.33;;;;;;;2.21;75.25;94673.09;5030240;28;20033;-72
2022/01/06 05:02:22;;;;;;;55.83;29.80;;;;;;;2.22;75.49;94688.00;5027241;28;20029;-73
2022/01/06 05:04:48;;;;;;;57.30;30.42;;;;;;;2.22;75.63;94674.78;5012184;28;20021;-71
2022/01/06 05:07:13;;;;;;;58.78;32.50;;;;;;;2.26;74.92;94672.69;5028681;28;20034;-73
2022/01/06 05:09:39;;;;;;;63.58;32.50;;;;;;;2.28;74.56;94695.38;5028969;28;20032;-72
2022/01/06 05:12:05;;;;;;;60.22;31.60;;;;;;;2.29;74.58;94652.03;5012278;28;20026;-73
2022/01/06 05:14:30;;;;;;;55.83;28.95;;;;;;;2.35;74.87;94679.75;5027253;28;20029;-73
2022/01/06 05:16:56;;;;;;;52.15;29.85;;;;;;;2.33;74.41;94673.75;5029768;28;20025;-73
2022/01/06 05:19:23;;;;;;;54.72;29.63;;;;;;;2.38;74.44;94691.84;5027314;28;20042;-72
2022/01/06 05:21:49;;;;;;;58.95;33.55;;;;;;;2.33;74.62;94677.25;5029165;28;20095;-74
2022/01/06 05:24:16;;;;;;;64.82;34.80;;;;;;;2.33;74.61;94663.19;5008993;28;20068;-74
2022/01/06 05:26:42;;;;;;;65.03;35.22;;;;;;;2.27;74.52;94684.94;5027539;28;20037;-71
2022/01/06 05:29:08;;;;;;;63.97;34.95;;;;;;;2.25;74.75;94682.44;4995033;28;20025;-72
2022/01/06 05:31:33;;;;;;;70.82;39.15;;;;;;;2.13;73.49;94668.53;5027619;28;20432;-73
2022/01/06 05:33:59;;;;;;;63.67;34.72;;;;;;;2.05;75.65;94685.13;5029513;28;20029;-73
2022/01/06 05:36:24;;;;;;;72.90;36.65;;;;;;;2.12;74.44;94671.31;5027176;28;20030;-71
2022/01/06 05:38:50;;;;;;;75.43;38.83;;;;;;;2.12;74.68;94668.66;5029333;28;20470;-73
2022/01/06 05:41:15;;;;;;;63.28;36.72;;;;;;;2.18;74.19;94699.84;5009306;28;20507;-73
2022/01/06 05:43:40;;;;;;;67.47;37.83;;;;;;;2.18;75.47;94676.03;5016621;28;20493;-72
2022/01/06 05:46:06;;;;;;;64.95;37.22;;;;;;;2.16;74.51;94693.88;5022645;28;20034;-72
2022/01/06 05:48:31;;;;;;;69.40;36.25;;;;;;;2.18;75.20;94686.59;5009833;28;20037;-73
2022/01/06 05:50:57;;;;;;;73.05;38.15;;;;;;;2.18;75.60;94702.50;5022592;28;20029;-74
2022/01/06 05:53:22;;;;;;;73.47;37.40;;;;;;;2.35;74.95;94687.69;4991189;28;20044;-75
2022/01/06 05:55:48;;;;;;;82.25;43.22;;;;;;;2.41;73.85;94707.44;5008516;28;20512;-75
2022/01/06 05:58:13;;;;;;;74.00;42.55;;;;;;;2.34;74.60;94692.16;5024619;28;20091;-74
2022/01/06 06:00:39;;;;;;;84.05;45.25;;;;;;;2.08;75.15;94687.47;5010454;28;20392;-76
2022/01/06 06:03:04;;;;;;;82.18;43.38;;;;;;;2.12;75.45;94681.91;5008290;28;20440;-77
2022/01/06 06:05:29;;;;;;;83.00;43.88;;;;;;;2.29;73.55;94704.97;5009157;28;20455;-74
2022/01/06 06:07:55;;;;;;;81.57;44.95;;;;;;;2.28;73.14;94694.53;5009729;28;20029;-77
2022/01/06 06:10:20;;;;;;;96.80;46.15;;;;;;;2.18;73.67;94690.09;4993029;28;20032;-74
2022/01/06 06:12:48;;;;;;;88.72;46.05;;;;;;;2.09;73.78;94683.03;5028489;28;20033;-73
2022/01/06 06:15:14;;;;;;;92.88;46.70;;;;;;;2.09;73.63;94689.16;5008577;28;20087;-75
2022/01/06 06:17:39;;;;;;;80.05;44.78;;;;;;;2.00;74.33;94689.19;5011568;28;20026;-72
2022/01/06 06:20:05;;;;;;;85.45;44.85;;;;;;;2.12;75.48;94687.19;5025749;28;20103;-72
2022/01/06 06:22:30;;;;;;;90.43;46.85;;;;;;;2.21;75.00;94707.50;5003373;28;20030;-73
2022/01/06 06:24:56;;;;;;;81.65;44.53;;;;;;;2.21;75.62;94691.63;5007044;28;20033;-73
2022/01/06 06:27:21;;;;;;;79.82;43.22;;;;;;;2.24;75.09;94696.66;5022807;28;20026;-73
2022/01/06 06:29:47;;;;;;;86.78;46.55;;;;;;;2.30;74.59;94706.66;5007982;28;20029;-72
2022/01/06 06:32:12;;;;;;;85.63;44.42;;;;;;;2.19;73.54;94709.47;5006487;28;20028;-73
2022/01/06 06:34:37;;;;;;;83.78;45.80;;;;;;;2.13;73.62;94710.03;5027537;28;20033;-72
2022/01/06 06:37:03;;;;;;;78.50;44.78;;;;;;;2.20;74.61;94697.91;5025663;28;20033;-73
2022/01/06 06:39:28;;;;;;;84.00;46.05;;;;;;;2.22;74.11;94714.47;5010580;28;20029;-75
2022/01/06 06:41:54;;;;;;;75.88;43.20;;;;;;;2.16;75.41;94694.69;5007794;28;20027;-73
2022/01/06 06:44:19;;;;;;;66.07;37.80;;;;;;;2.29;75.67;94718.19;5010098;28;20017;-72
2022/01/06 06:46:44;;;;;;;66.05;37.20;;;;;;;2.39;75.58;94709.38;5027245;28;20021;-74
2022/01/06 06:49:10;;;;;;;90.22;49.55;;;;;;;2.45;73.16;94714.13;5008594;28;20447;-73
2022/01/06 06:51:35;;;;;;;96.38;50.88;;;;;;;2.45;72.62;94709.66;5010290;28;20037;-73
2022/01/06 06:54:01;;;;;;;93.70;49.28;;;;;;;2.43;71.62;94711.63;5025725;28;20581;-73
2022/01/06 06:56:26;;;;;;;92.68;50.22;;;;;;;2.39;71.70;94714.69;4994284;28;20069;-73
2022/01/06 06:58:52;;;;;;;93.70;52.47;;;;;;;2.45;71.29;94711.50;5008058;28;20148;-77
2022/01/06 07:01:17;;;;;;;98.13;51.80;;;;;;;2.44;70.90;94738.91;5010236;28;20029;-76
2022/01/06 07:03:42;;;;;;;94.43;51.33;;;;;;;2.31;70.74;94749.81;5026095;28;20025;-75
2022/01/06 07:06:08;;;;;;;96.78;48.67;;;;;;;2.40;69.28;94727.78;5027398;28;20018;-73
2022/01/06 07:08:33;;;;;;;115.07;51.13;;;;;;;2.47;69.74;94743.91;5027661;28;20076;-72
2022/01/06 07:10:59;;;;;;;95.07;51.28;;;;;;;2.24;70.69;94723.09;5026074;28;20408;-73
2022/01/06 07:13:24;;;;;;;96.43;53.17;;;;;;;2.51;70.69;94729.44;5027764;28;20033;-73
2022/01/06 07:15:50;;;;;;;97.32;50.40;;;;;;;2.66;70.41;94726.31;5025526;28;20026;-73
2022/01/06 07:18:15;;;;;;;82.68;46.47;;;;;;;2.87;70.61;94734.00;5027236;28;20021;-73
2022/01/06 07:20:41;;;;;;;85.85;45.60;;;;;;;3.17;70.75;94733.88;5025662;28;20033;-73
2022/01/06 07:23:07;;;;;;;86.55;45.90;;;;;;;3.32;70.18;94721.78;5027101;28;20404;-72
2022/01/06 07:25:32;;;;;;;80.13;44.55;;;;;;;3.53;69.67;94733.91;4992206;28;20029;-72
2022/01/06 07:27:58;;;;;;;84.50;44.25;;;;;;;3.75;69.14;94750.38;5009378;28;20033;-73
2022/01/06 07:30:24;;;;;;;83.13;44.42;;;;;;;3.96;68.57;94749.22;5027095;28;20022;-74
2022/01/06 07:32:50;;;;;;;92.25;48.67;;;;;;;4.15;66.88;94747.38;5007926;28;20051;-73
2022/01/06 07:35:16;;;;;;;103.13;53.03;;;;;;;3.99;67.06;94748.06;5009755;28;20447;-73
2022/01/06 07:37:42;;;;;;;102.85;53.40;;;;;;;4.05;66.71;94752.78;5007522;28;20013;-76
2022/01/06 07:40:08;;;;;;;105.15;53.00;;;;;;;4.12;66.86;94768.91;5027001;28;20377;-73
2022/01/06 07:42:33;;;;;;;88.35;47.10;;;;;;;4.17;67.47;94740.09;5025528;28;20044;-74
2022/01/06 07:45:00;;;;;;;94.03;47.33;;;;;;;4.29;67.27;94749.47;5009657;28;20026;-73
2022/01/06 07:47:26;;;;;;;79.13;44.65;;;;;;;4.38;67.53;94750.38;5008783;28;20042;-74
2022/01/06 07:49:51;;;;;;;77.90;43.53;;;;;;;4.54;67.41;94747.00;5008172;28;20391;-74
2022/01/06 07:52:17;;;;;;;77.05;42.17;;;;;;;4.62;67.37;94758.66;5009327;28;20477;-74
2022/01/06 07:54:43;;;;;;;74.68;42.45;;;;;;;4.77;67.02;94740.31;5007387;28;20033;-74
2022/01/06 07:57:09;;;;;;;74.22;42.15;;;;;;;4.89;67.05;94759.47;5009431;28;20033;-74
2022/01/06 07:59:34;;;;;;;72.28;39.72;;;;;;;5.17;66.83;94754.78;5025021;28;20022;-72
2022/01/06 08:01:59;;;;;;;70.20;39.50;;;;;;;5.41;65.78;94763.00;5030381;28;20099;-73
2022/01/06 08:04:25;;;;;;;66.93;39.95;;;;;;;5.60;65.17;94750.41;5029695;28;20022;-74
2022/01/06 08:06:50;;;;;;;62.15;33.78;;;;;;;5.89;64.98;94759.78;5030569;28;20029;-74
2022/01/06 08:09:16;;;;;;;59.90;33.38;;;;;;;6.14;64.14;94757.19;5030686;28;20033;-75
2022/01/06 08:11:41;;;;;;;53.42;33.42;;;;;;;6.33;63.33;94749.84;5029379;28;20033;-73
2022/01/06 08:14:06;;;;;;;62.33;34.53;;;;;;;6.54;63.00;94758.16;5013368;28;20353;-73
2022/01/06 08:16:32;;;;;;;58.95;35.22;;;;;;;6.57;62.67;94754.31;5028664;28;20103;-74
2022/01/06 08:18:57;;;;;;;56.40;36.15;;;;;;;6.36;63.10;94761.00;5013233;28;20046;-74
2022/01/06 08:21:23;;;;;;;64.80;38.95;;;;;;;6.57;63.34;94762.31;5028551;28;20029;-73
2022/01/06 08:23:48;;;;;;;62.13;38.08;;;;;;;6.80;62.25;94762.41;5030899;28;20052;-75
2022/01/06 08:26:13;;;;;;;62.13;39.58;;;;;;;6.89;62.60;94768.59;5012865;28;20472;-74
2022/01/06 08:28:39;;;;;;;62.92;39.08;;;;;;;7.12;61.65;94770.53;5012002;28;20017;-75
2022/01/06 08:31:04;;;;;;;53.55;32.58;;;;;;;7.26;60.73;94779.63;5030982;28;20033;-75
2022/01/06 08:33:30;;;;;;;60.17;37.40;;;;;;;7.41;61.07;94768.25;5028267;28;20393;-75
2022/01/06 08:35:55;;;;;;;64.93;37.95;;;;;;;7.48;60.85;94792.41;5013144;28;20021;-73
2022/01/06 08:38:21;;;;;;;61.72;37.58;;;;;;;7.44;61.55;94765.22;5010545;28;20029;-74
2022/01/06 08:40:46;;;;;;;70.97;40.75;;;;;;;7.51;60.64;94768.03;4996464;28;20029;-73
2022/01/06 08:43:12;;;;;;;65.28;39.10;;;;;;;7.52;60.90;94770.53;5028756;28;20090;-73
2022/01/06 08:45:37;;;;;;;56.92;33.63;;;;;;;7.79;59.33;94763.03;5030096;28;20462;-74
2022/01/06 08:48:03;;;;;;;53.28;32.20;;;;;;;7.97;58.65;94756.59;4995965;28;20022;-73
2022/01/06 08:50:29;;;;;;;50.35;30.23;;;;;;;8.00;58.98;94766.06;5011222;28;20045;-76
2022/01/06 08:52:55;;;;;;;45.17;30.48;;;;;;;8.06;58.61;94764.53;5012795;28;20597;-72
2022/01/06 08:55:20;;;;;;;53.38;32.55;;;;;;;8.25;58.67;94761.38;5010364;28;20030;-73
2022/01/06 08:57:46;;;;;;;54.15;31.50;;;;;;;8.35;58.63;94763.00;5030213;28;20021;-76
2022/01/06 09:00:12;;;;;;;50.53;32.25;;;;;;;8.38;58.38;94768.78;5028181;28;20235;-75
2022/01/06 09:02:37;;;;;;;58.00;34.60;;;;;;;8.48;57.94;94763.19;5012250;28;20040;-74
2022/01/06 09:05:06;;;;;;;58.35;36.28;;;;;;;8.68;57.65;94757.38;4994737;28;20029;-74
2022/01/06 09:07:34;;;;;;;63.88;38.75;;;;;;;8.78;57.53;94768.66;5011714;28;20049;-74
2022/01/06 09:10:00;;;;;;;56.17;37.70;;;;;;;8.73;56.79;94760.34;5030180;28;20052;-76
2022/01/06 09:12:26;;;;;;;52.92;35.35;;;;;;;8.80;57.54;94760.44;5009651;28;20014;-75
2022/01/06 09:14:51;;;;;;;53.58;34.50;;;;;;;9.05;57.07;94767.38;5012122;28;20038;-73
2022/01/06 09:17:17;;;;;;;55.20;33.85;;;;;;;9.07;55.95;94765.34;5027967;28;20028;-76
2022/01/06 09:19:42;;;;;;;49.28;31.85;;;;;;;9.13;55.66;94745.88;5029484;28;20061;-72
2022/01/06 09:22:08;;;;;;;53.95;33.00;;;;;;;9.13;55.38;94748.56;5028089;28;20930;-74
2022/01/06 09:24:34;;;;;;;56.35;32.08;;;;;;;9.11;56.06;94742.53;5029129;28;20507;-74
2022/01/06 09:26:59;;;;;;;56.58;32.78;;;;;;;9.25;55.66;94739.03;5029225;28;20394;-73
2022/01/06 09:29:24;;;;;;;50.25;32.90;;;;;;;9.43;56.15;94735.13;5028291;28;20044;-73
2022/01/06 09:31:50;;;;;;;50.53;33.10;;;;;;;9.55;55.24;94727.47;5029603;28;20072;-72
2022/01/06 09:34:15;;;;;;;58.15;36.20;;;;;;;9.56;55.77;94736.34;5009587;28;20416;-73
2022/01/06 09:36:41;;;;;;;55.80;35.70;;;;;;;9.68;55.17;94721.44;5029338;28;20484;-74
2022/01/06 09:39:08;;;;;;;57.63;36.53;;;;;;;9.80;54.90;94721.75;5009897;28;20033;-73
2022/01/06 09:41:34;;;;;;;57.63;35.60;;;;;;;9.96;54.84;94720.69;5029338;28;20491;-73
2022/01/06 09:44:00;;;;;;;55.35;34.30;;;;;;;10.07;54.17;94710.50;5010441;28;20132;-74
2022/01/06 09:46:26;;;;;;;54.78;34.42;;;;;;;10.17;53.81;94720.91;5010963;28;20053;-74
2022/01/06 09:48:55;;;;;;;52.53;32.33;;;;;;;10.37;53.56;94715.69;5011092;28;20029;-73
2022/01/06 09:51:20;;;;;;;48.95;33.35;;;;;;;10.47;53.86;94718.91;4993947;28;20056;-74
2022/01/06 09:53:48;;;;;;;57.70;37.00;;;;;;;10.45;53.54;94715.56;5029534;28;20074;-74
2022/01/06 09:56:14;;;;;;;61.28;37.80;;;;;;;10.51;54.08;94712.13;5008961;28;20030;-73
2022/01/06 09:58:39;;;;;;;57.35;34.22;;;;;;;10.60;53.45;94704.78;5028446;28;20037;-76
2022/01/06 10:01:05;;;;;;;55.10;35.03;;;;;;;10.59;53.41;94707.66;5026914;28;20037;-73
2022/01/06 10:03:51;;;;;;;62.90;36.40;;;;;;;10.77;54.21;94714.38;5028529;28;20496;-74
2022/01/06 10:06:26;;;;;;;59.83;36.10;;;;;;;10.79;53.93;94709.63;5011436;28;20030;-72
2022/01/06 10:09:04;;;;;;;52.03;33.78;;;;;;;10.85;53.80;94706.19;5008785;28;20025;-73
2022/01/06 10:11:33;;;;;;;51.22;30.65;;;;;;;10.96;53.64;94697.56;5029175;28;20030;-74
2022/01/06 10:14:05;;;;;;;51.60;31.35;;;;;;;10.99;53.10;94689.13;4992983;28;20041;-73
2022/01/06 10:16:30;;;;;;;43.08;27.08;;;;;;;10.93;52.72;94683.75;5028925;28;20057;-75
2022/01/06 10:19:07;;;;;;;40.70;23.23;;;;;;;11.19;49.92;94691.09;5027952;28;20491;-75
2022/01/06 10:21:43;;;;;;;20.30;11.18;;;;;;;11.53;48.36;94682.31;5009639;28;20079;-72
2022/01/06 10:24:13;;;;;;;6.75;4.07;;;;;;;11.93;46.17;94695.88;5011434;28;20042;-75
2022/01/06 10:26:59;;;;;;;7.43;4.78;;;;;;;12.22;46.20;94687.66;5009324;28;20044;-73
2022/01/06 10:29:26;;;;;;;5.75;4.00;;;;;;;12.40;45.72;94684.38;4994571;28;20022;-76
2022/01/06 10:31:51;;;;;;;5.78;3.30;;;;;;;12.64;44.14;94686.66;5009953;28;20038;-73
2022/01/06 10:34:17;;;;;;;5.35;3.20;;;;;;;12.77;44.43;94691.19;5027247;28;20082;-73
2022/01/06 10:36:42;;;;;;;6.75;3.03;;;;;;;12.92;43.75;94681.03;5028638;28;20022;-73
2022/01/06 10:39:08;;;;;;;4.95;2.83;;;;;;;13.07;43.23;94669.19;5008251;28;20083;-74
2022/01/06 10:41:36;;;;;;;5.43;3.00;;;;;;;13.20;42.99;94679.88;5010873;28;20029;-75
2022/01/06 10:44:01;;;;;;;6.50;3.17;;;;;;;13.35;42.24;94670.72;4975910;28;20446;-75
2022/01/06 10:46:28;;;;;;;5.10;2.60;;;;;;;13.46;41.84;94677.34;5028314;28;20029;-75
2022/01/06 10:48:58;;;;;;;11.82;3.28;;;;;;;13.59;41.92;94668.38;5026860;28;20063;-74
2022/01/06 10:51:32;;;;;;;4.50;2.40;;;;;;;13.68;40.71;94663.56;5027097;28;20029;-73
2022/01/06 10:53:58;;;;;;;6.43;2.80;;;;;;;13.74;41.16;94673.50;5027877;28;20040;-72
2022/01/06 10:56:24;;;;;;;5.85;2.83;;;;;;;13.75;40.50;94661.66;5025930;28;20033;-74
2022/01/06 10:58:50;;;;;;;4.88;2.60;;;;;;;13.91;41.40;94662.22;5028226;28;20021;-75
2022/01/06 11:01:16;;;;;;;5.70;2.83;;;;;;;13.96;40.56;94647.03;5007792;28;20033;-73
2022/01/06 11:03:41;;;;;;;4.25;2.63;;;;;;;14.03;40.01;94667.72;5028034;28;20022;-73
2022/01/06 11:06:07;;;;;;;4.03;2.80;;;;;;;14.09;39.78;94661.44;5026292;28;20480;-77
2022/01/06 11:08:36;;;;;;;4.70;2.33;;;;;;;14.15;39.37;94654.38;4993108;28;20427;-74
2022/01/06 11:13:38;;;;;;;6.72;2.95;;;;;;;14.27;39.52;94652.63;5008821;28;20037;-74
2022/01/06 11:16:04;;;;;;;6.22;2.35;;;;;;;14.34;38.78;94653.41;5027429;28;20068;-74
2022/01/06 11:18:30;;;;;;;6.30;2.75;;;;;;;14.40;38.92;94640.06;4991330;28;20056;-73
2022/01/06 11:21:12;;;;;;;6.03;2.90;;;;;;;14.48;38.19;94653.28;5009987;28;20030;-75
2022/01/06 11:23:37;;;;;;;8.45;3.20;;;;;;;14.49;38.12;94640.63;4994041;28;20454;-75
2022/01/06 11:26:11;;;;;;;5.50;2.78;;;;;;;14.57;37.98;94651.13;4992584;28;20251;-75
2022/01/06 11:28:37;;;;;;;7.45;2.80;;;;;;;14.64;37.84;94651.06;5010080;28;20032;-74
2022/01/06 11:31:16;;;;;;;7.40;2.92;;;;;;;14.67;37.67;94643.34;4991282;28;20021;-73